sensor_id;sensor_type;location;lat;lon;timestamp;P1;durP1;ratioP1;P2;durP2;ratioP2
65641;SDS011;52340;-6.720;108.544;2023-03-04T00:39:17;39.20;;;30.73;;
65641;SDS011;52340;-6.720;108.544;2023-03-04T00:45:49;35.90;;;28.20;;
65641;SDS011;52340;-6.720;108.544;2023-03-04T00:47:55;35.90;;;26.90;;
65641;SDS011;52340;-6.720;108.544;2023-03-04T01:06:24;27.95;;;21.73;;
65641;SDS011;52340;-6.720;108.544;2023-03-04T01:21:21;29.90;;;21.38;;
65641;SDS011;52340;-6.720;108.544;2023-03-04T01:22:24;26.10;;;20.30;;
65641;SDS011;52340;-6.720;108.544;2023-03-04T01:25:36;28.30;;;20.77;;
65641;SDS011;52340;-6.720;108.544;2023-03-04T01:26:38;27.30;;;20.30;;
65641;SDS011;52340;-6.720;108.544;2023-03-04T01:28:40;25.65;;;20.02;;
65641;SDS011;52340;-6.720;108.544;2023-03-04T01:31:53;27.33;;;20.30;;
65641;SDS011;52340;-6.720;108.544;2023-03-04T01:34:59;28.33;;;20.00;;
65641;SDS011;52340;-6.720;108.544;2023-03-04T01:36:01;26.02;;;20.25;;
65641;SDS011;52340;-6.720;108.544;2023-03-04T03:56:46;22.50;;;15.77;;
65641;SDS011;52340;-6.720;108.544;2023-03-04T04:12:33;22.13;;;17.63;;
65641;SDS011;52340;-6.720;108.544;2023-03-04T04:17:53;23.97;;;18.50;;
65641;SDS011;52340;-6.720;108.544;2023-03-04T04:19:55;22.23;;;17.93;;
65641;SDS011;52340;-6.720;108.544;2023-03-04T04:20:57;24.00;;;17.58;;
65641;SDS011;52340;-6.720;108.544;2023-03-04T04:48:42;17.05;;;10.82;;
65641;SDS011;52340;-6.720;108.544;2023-03-04T04:50:54;14.85;;;10.85;;
65641;SDS011;52340;-6.720;108.544;2023-03-04T04:53:01;16.05;;;11.30;;
65641;SDS011;52340;-6.720;108.544;2023-03-04T05:03:18;14.77;;;8.02;;
65641;SDS011;52340;-6.720;108.544;2023-03-04T05:04:21;11.85;;;7.38;;
65641;SDS011;52340;-6.720;108.544;2023-03-04T05:05:23;13.07;;;6.95;;
65641;SDS011;52340;-6.720;108.544;2023-03-04T05:06:25;10.68;;;6.13;;
65641;SDS011;52340;-6.720;108.544;2023-03-04T05:09:35;14.63;;;7.25;;
65641;SDS011;52340;-6.720;108.544;2023-03-04T05:10:37;12.55;;;7.47;;
65641;SDS011;52340;-6.720;108.544;2023-03-04T05:11:39;14.05;;;7.22;;
65641;SDS011;52340;-6.720;108.544;2023-03-04T05:12:43;12.43;;;7.70;;
65641;SDS011;52340;-6.720;108.544;2023-03-04T05:13:45;11.93;;;7.55;;
65641;SDS011;52340;-6.720;108.544;2023-03-04T05:14:46;13.50;;;7.45;;
65641;SDS011;52340;-6.720;108.544;2023-03-04T05:15:49;13.25;;;7.63;;
65641;SDS011;52340;-6.720;108.544;2023-03-04T05:16:51;11.73;;;6.72;;
65641;SDS011;52340;-6.720;108.544;2023-03-04T05:17:53;11.70;;;6.88;;
65641;SDS011;52340;-6.720;108.544;2023-03-04T05:18:55;12.07;;;6.28;;
65641;SDS011;52340;-6.720;108.544;2023-03-04T05:19:59;10.02;;;5.80;;
65641;SDS011;52340;-6.720;108.544;2023-03-04T05:21:01;11.98;;;5.38;;
65641;SDS011;52340;-6.720;108.544;2023-03-04T05:22:04;10.75;;;5.57;;
65641;SDS011;52340;-6.720;108.544;2023-03-04T05:23:05;9.77;;;5.75;;
65641;SDS011;52340;-6.720;108.544;2023-03-04T05:24:07;10.88;;;5.68;;
65641;SDS011;52340;-6.720;108.544;2023-03-04T05:25:09;10.48;;;5.05;;
65641;SDS011;52340;-6.720;108.544;2023-03-04T05:26:11;10.00;;;5.30;;
65641;SDS011;52340;-6.720;108.544;2023-03-04T05:27:14;12.90;;;5.60;;
65641;SDS011;52340;-6.720;108.544;2023-03-04T05:28:16;12.50;;;5.40;;
65641;SDS011;52340;-6.720;108.544;2023-03-04T05:29:18;11.50;;;5.32;;
65641;SDS011;52340;-6.720;108.544;2023-03-04T05:30:20;9.27;;;5.10;;
65641;SDS011;52340;-6.720;108.544;2023-03-04T05:31:22;10.25;;;5.45;;
65641;SDS011;52340;-6.720;108.544;2023-03-04T05:32:24;13.27;;;6.00;;
65641;SDS011;52340;-6.720;108.544;2023-03-04T05:33:26;11.82;;;5.70;;
65641;SDS011;52340;-6.720;108.544;2023-03-04T05:34:28;16.00;;;5.60;;
65641;SDS011;52340;-6.720;108.544;2023-03-04T05:35:32;10.85;;;5.53;;
65641;SDS011;52340;-6.720;108.544;2023-03-04T05:36:34;11.20;;;4.97;;
65641;SDS011;52340;-6.720;108.544;2023-03-04T05:37:36;10.15;;;4.68;;
65641;SDS011;52340;-6.720;108.544;2023-03-04T05:38:38;10.02;;;5.25;;
65641;SDS011;52340;-6.720;108.544;2023-03-04T05:39:39;11.07;;;5.50;;
65641;SDS011;52340;-6.720;108.544;2023-03-04T05:40:41;13.55;;;5.95;;
65641;SDS011;52340;-6.720;108.544;2023-03-04T05:41:46;10.70;;;6.18;;
65641;SDS011;52340;-6.720;108.544;2023-03-04T05:42:48;11.13;;;5.82;;
65641;SDS011;52340;-6.720;108.544;2023-03-04T05:43:50;12.13;;;5.68;;
65641;SDS011;52340;-6.720;108.544;2023-03-04T05:44:51;8.82;;;4.65;;
65641;SDS011;52340;-6.720;108.544;2023-03-04T05:45:53;9.95;;;4.40;;
65641;SDS011;52340;-6.720;108.544;2023-03-04T05:46:56;10.68;;;4.35;;
65641;SDS011;52340;-6.720;108.544;2023-03-04T05:47:57;8.27;;;4.28;;
65641;SDS011;52340;-6.720;108.544;2023-03-04T05:48:59;10.23;;;4.50;;
65641;SDS011;52340;-6.720;108.544;2023-03-04T05:50:01;9.13;;;4.55;;
65641;SDS011;52340;-6.720;108.544;2023-03-04T05:51:09;9.80;;;4.05;;
65641;SDS011;52340;-6.720;108.544;2023-03-04T05:52:11;9.80;;;4.50;;
65641;SDS011;52340;-6.720;108.544;2023-03-04T05:53:12;10.15;;;4.38;;
65641;SDS011;52340;-6.720;108.544;2023-03-04T05:54:14;11.90;;;4.60;;
65641;SDS011;52340;-6.720;108.544;2023-03-04T05:55:16;8.57;;;4.43;;
65641;SDS011;52340;-6.720;108.544;2023-03-04T05:56:18;10.05;;;4.70;;
65641;SDS011;52340;-6.720;108.544;2023-03-04T05:57:20;8.52;;;4.45;;
65641;SDS011;52340;-6.720;108.544;2023-03-04T05:58:22;9.85;;;4.95;;
65641;SDS011;52340;-6.720;108.544;2023-03-04T05:59:24;11.23;;;4.60;;
65641;SDS011;52340;-6.720;108.544;2023-03-04T06:00:26;9.13;;;4.70;;
65641;SDS011;52340;-6.720;108.544;2023-03-04T06:01:28;10.57;;;4.90;;
65641;SDS011;52340;-6.720;108.544;2023-03-04T06:02:30;11.13;;;4.93;;
65641;SDS011;52340;-6.720;108.544;2023-03-04T06:03:32;9.75;;;4.60;;
65641;SDS011;52340;-6.720;108.544;2023-03-04T06:04:34;9.48;;;4.68;;
65641;SDS011;52340;-6.720;108.544;2023-03-04T06:05:36;10.18;;;4.63;;
65641;SDS011;52340;-6.720;108.544;2023-03-04T06:06:39;9.10;;;4.50;;
65641;SDS011;52340;-6.720;108.544;2023-03-04T06:07:41;11.27;;;4.38;;
65641;SDS011;52340;-6.720;108.544;2023-03-04T06:08:43;9.40;;;4.53;;
65641;SDS011;52340;-6.720;108.544;2023-03-04T06:09:45;9.05;;;4.50;;
65641;SDS011;52340;-6.720;108.544;2023-03-04T06:10:47;9.45;;;4.40;;
65641;SDS011;52340;-6.720;108.544;2023-03-04T06:11:52;10.23;;;4.43;;
65641;SDS011;52340;-6.720;108.544;2023-03-04T06:12:54;10.15;;;4.57;;
65641;SDS011;52340;-6.720;108.544;2023-03-04T06:13:57;9.90;;;4.90;;
65641;SDS011;52340;-6.720;108.544;2023-03-04T06:14:59;12.13;;;4.60;;
65641;SDS011;52340;-6.720;108.544;2023-03-04T06:16:01;9.45;;;4.47;;
65641;SDS011;52340;-6.720;108.544;2023-03-04T06:17:03;10.50;;;4.63;;
65641;SDS011;52340;-6.720;108.544;2023-03-04T06:18:05;13.88;;;5.13;;
65641;SDS011;52340;-6.720;108.544;2023-03-04T06:19:07;10.40;;;4.95;;
65641;SDS011;52340;-6.720;108.544;2023-03-04T06:26:58;11.18;;;5.13;;
65641;SDS011;52340;-6.720;108.544;2023-03-04T06:30:20;13.90;;;6.40;;
65641;SDS011;52340;-6.720;108.544;2023-03-04T06:31:22;12.15;;;6.40;;
65641;SDS011;52340;-6.720;108.544;2023-03-04T06:32:24;11.18;;;5.55;;
65641;SDS011;52340;-6.720;108.544;2023-03-04T06:35:41;15.20;;;6.85;;
65641;SDS011;52340;-6.720;108.544;2023-03-04T06:37:48;12.80;;;6.95;;
65641;SDS011;52340;-6.720;108.544;2023-03-04T06:38:49;12.30;;;6.80;;
65641;SDS011;52340;-6.720;108.544;2023-03-04T06:44:21;12.73;;;6.55;;
65641;SDS011;52340;-6.720;108.544;2023-03-04T06:45:23;12.65;;;6.70;;
65641;SDS011;52340;-6.720;108.544;2023-03-04T07:38:18;18.08;;;11.07;;
65641;SDS011;52340;-6.720;108.544;2023-03-04T07:39:20;18.55;;;11.70;;
65641;SDS011;52340;-6.720;108.544;2023-03-04T07:40:22;20.10;;;12.68;;
65641;SDS011;52340;-6.720;108.544;2023-03-04T07:44:47;20.58;;;11.60;;
65641;SDS011;52340;-6.720;108.544;2023-03-04T07:46:56;18.02;;;11.73;;
65641;SDS011;52340;-6.720;108.544;2023-03-04T07:47:58;16.13;;;10.88;;
65641;SDS011;52340;-6.720;108.544;2023-03-04T07:49:00;16.77;;;10.65;;
65641;SDS011;52340;-6.720;108.544;2023-03-04T07:50:01;16.83;;;11.02;;
65641;SDS011;52340;-6.720;108.544;2023-03-04T07:51:07;20.60;;;11.52;;
65641;SDS011;52340;-6.720;108.544;2023-03-04T07:52:10;18.20;;;11.38;;
65641;SDS011;52340;-6.720;108.544;2023-03-04T07:53:12;20.92;;;12.10;;
65641;SDS011;52340;-6.720;108.544;2023-03-04T07:54:18;18.25;;;11.43;;
65641;SDS011;52340;-6.720;108.544;2023-03-04T07:55:20;24.27;;;11.32;;
65641;SDS011;52340;-6.720;108.544;2023-03-04T07:56:22;18.10;;;11.25;;
65641;SDS011;52340;-6.720;108.544;2023-03-04T07:57:25;20.15;;;12.15;;
65641;SDS011;52340;-6.720;108.544;2023-03-04T07:58:29;18.10;;;11.32;;
65641;SDS011;52340;-6.720;108.544;2023-03-04T07:59:31;18.40;;;11.57;;
65641;SDS011;52340;-6.720;108.544;2023-03-04T08:02:42;22.05;;;11.02;;
65641;SDS011;52340;-6.720;108.544;2023-03-04T08:07:14;15.95;;;8.30;;
65641;SDS011;52340;-6.720;108.544;2023-03-04T08:08:16;13.63;;;7.97;;
65641;SDS011;52340;-6.720;108.544;2023-03-04T08:09:20;15.98;;;8.27;;
65641;SDS011;52340;-6.720;108.544;2023-03-04T08:10:21;16.55;;;8.20;;
65641;SDS011;52340;-6.720;108.544;2023-03-04T08:11:23;14.07;;;8.00;;
65641;SDS011;52340;-6.720;108.544;2023-03-04T08:12:25;13.80;;;7.53;;
65641;SDS011;52340;-6.720;108.544;2023-03-04T08:15:47;10.45;;;7.05;;
65641;SDS011;52340;-6.720;108.544;2023-03-04T08:19:09;14.30;;;6.80;;
65641;SDS011;52340;-6.720;108.544;2023-03-04T08:20:11;12.27;;;7.70;;
65641;SDS011;52340;-6.720;108.544;2023-03-04T08:21:13;16.13;;;8.45;;
65641;SDS011;52340;-6.720;108.544;2023-03-04T08:25:48;12.65;;;5.55;;
65641;SDS011;52340;-6.720;108.544;2023-03-04T08:28:00;12.43;;;5.60;;
65641;SDS011;52340;-6.720;108.544;2023-03-04T08:29:02;13.00;;;6.32;;
65641;SDS011;52340;-6.720;108.544;2023-03-04T08:30:05;14.10;;;6.10;;
65641;SDS011;52340;-6.720;108.544;2023-03-04T08:31:07;12.55;;;6.03;;
65641;SDS011;52340;-6.720;108.544;2023-03-04T08:32:09;14.73;;;7.10;;
65641;SDS011;52340;-6.720;108.544;2023-03-04T08:33:11;14.85;;;7.60;;
65641;SDS011;52340;-6.720;108.544;2023-03-04T08:34:13;13.30;;;7.50;;
65641;SDS011;52340;-6.720;108.544;2023-03-04T08:35:15;13.50;;;6.80;;
65641;SDS011;52340;-6.720;108.544;2023-03-04T08:36:17;11.68;;;6.50;;
65641;SDS011;52340;-6.720;108.544;2023-03-04T08:37:19;12.20;;;6.53;;
65641;SDS011;52340;-6.720;108.544;2023-03-04T08:38:20;12.63;;;7.07;;
65641;SDS011;52340;-6.720;108.544;2023-03-04T08:39:22;15.18;;;7.22;;
65641;SDS011;52340;-6.720;108.544;2023-03-04T08:40:24;13.13;;;6.85;;
65641;SDS011;52340;-6.720;108.544;2023-03-04T08:41:27;15.05;;;7.40;;
65641;SDS011;52340;-6.720;108.544;2023-03-04T08:42:29;16.70;;;7.35;;
65641;SDS011;52340;-6.720;108.544;2023-03-04T08:43:31;14.02;;;6.78;;
65641;SDS011;52340;-6.720;108.544;2023-03-04T08:44:33;14.63;;;6.85;;
65641;SDS011;52340;-6.720;108.544;2023-03-04T08:46:42;15.13;;;7.60;;
65641;SDS011;52340;-6.720;108.544;2023-03-04T08:47:44;14.55;;;7.50;;
65641;SDS011;52340;-6.720;108.544;2023-03-04T08:50:56;13.65;;;6.75;;
65641;SDS011;52340;-6.720;108.544;2023-03-04T08:53:03;11.80;;;6.13;;
65641;SDS011;52340;-6.720;108.544;2023-03-04T08:54:04;14.13;;;5.80;;
65641;SDS011;52340;-6.720;108.544;2023-03-04T08:55:06;14.02;;;6.13;;
65641;SDS011;52340;-6.720;108.544;2023-03-04T08:56:09;12.68;;;5.95;;
65641;SDS011;52340;-6.720;108.544;2023-03-04T08:57:13;12.85;;;6.15;;
65641;SDS011;52340;-6.720;108.544;2023-03-04T09:01:40;14.75;;;7.32;;
65641;SDS011;52340;-6.720;108.544;2023-03-04T09:02:42;14.95;;;7.05;;
65641;SDS011;52340;-6.720;108.544;2023-03-04T09:03:44;14.68;;;7.35;;
65641;SDS011;52340;-6.720;108.544;2023-03-04T09:04:46;12.60;;;7.65;;
65641;SDS011;52340;-6.720;108.544;2023-03-04T09:05:47;15.50;;;7.93;;
65641;SDS011;52340;-6.720;108.544;2023-03-04T09:06:49;16.60;;;8.85;;
65641;SDS011;52340;-6.720;108.544;2023-03-04T09:11:04;15.05;;;7.75;;
65641;SDS011;52340;-6.720;108.544;2023-03-04T09:12:06;15.07;;;7.90;;
65641;SDS011;52340;-6.720;108.544;2023-03-04T09:13:09;15.15;;;8.10;;
65641;SDS011;52340;-6.720;108.544;2023-03-04T09:14:11;16.10;;;8.18;;
65641;SDS011;52340;-6.720;108.544;2023-03-04T09:15:13;15.13;;;8.20;;
65641;SDS011;52340;-6.720;108.544;2023-03-04T09:16:15;13.48;;;7.70;;
65641;SDS011;52340;-6.720;108.544;2023-03-04T09:17:17;15.80;;;8.07;;
65641;SDS011;52340;-6.720;108.544;2023-03-04T09:18:19;17.70;;;8.05;;
65641;SDS011;52340;-6.720;108.544;2023-03-04T09:19:22;15.70;;;7.70;;
65641;SDS011;52340;-6.720;108.544;2023-03-04T09:20:23;16.77;;;8.00;;
65641;SDS011;52340;-6.720;108.544;2023-03-04T09:21:25;16.95;;;8.40;;
65641;SDS011;52340;-6.720;108.544;2023-03-04T09:23:37;22.02;;;13.68;;
65641;SDS011;52340;-6.720;108.544;2023-03-04T09:26:53;14.43;;;8.18;;
65641;SDS011;52340;-6.720;108.544;2023-03-04T09:27:55;14.20;;;8.38;;
65641;SDS011;52340;-6.720;108.544;2023-03-04T09:28:59;15.20;;;8.48;;
65641;SDS011;52340;-6.720;108.544;2023-03-04T09:30:01;17.05;;;8.68;;
65641;SDS011;52340;-6.720;108.544;2023-03-04T09:31:09;17.35;;;8.75;;
65641;SDS011;52340;-6.720;108.544;2023-03-04T09:33:22;18.10;;;9.68;;
65641;SDS011;52340;-6.720;108.544;2023-03-04T09:34:24;16.67;;;9.73;;
65641;SDS011;52340;-6.720;108.544;2023-03-04T09:35:26;22.50;;;11.57;;
65641;SDS011;52340;-6.720;108.544;2023-03-04T09:36:27;19.10;;;11.45;;
65641;SDS011;52340;-6.720;108.544;2023-03-04T09:37:29;17.60;;;10.95;;
65641;SDS011;52340;-6.720;108.544;2023-03-04T09:38:31;21.15;;;12.40;;
65641;SDS011;52340;-6.720;108.544;2023-03-04T09:39:33;27.35;;;15.48;;
65641;SDS011;52340;-6.720;108.544;2023-03-04T09:40:36;26.52;;;15.95;;
65641;SDS011;52340;-6.720;108.544;2023-03-04T09:41:41;21.55;;;13.68;;
65641;SDS011;52340;-6.720;108.544;2023-03-04T09:42:45;21.90;;;13.73;;
65641;SDS011;52340;-6.720;108.544;2023-03-04T09:43:48;24.95;;;13.88;;
65641;SDS011;52340;-6.720;108.544;2023-03-04T09:46:00;21.40;;;13.20;;
65641;SDS011;52340;-6.720;108.544;2023-03-04T09:47:05;22.92;;;13.52;;
65641;SDS011;52340;-6.720;108.544;2023-03-04T10:19:26;23.70;;;13.77;;
65641;SDS011;52340;-6.720;108.544;2023-03-04T10:26:17;25.50;;;14.48;;
65641;SDS011;52340;-6.720;108.544;2023-03-04T10:27:20;24.63;;;13.55;;
65641;SDS011;52340;-6.720;108.544;2023-03-04T10:40:05;20.13;;;10.85;;
65641;SDS011;52340;-6.720;108.544;2023-03-04T10:53:58;24.05;;;12.25;;
65641;SDS011;52340;-6.720;108.544;2023-03-04T10:55:05;20.45;;;12.07;;
65641;SDS011;52340;-6.720;108.544;2023-03-04T10:58:29;21.77;;;13.15;;
65641;SDS011;52340;-6.720;108.544;2023-03-04T10:59:32;23.58;;;14.07;;
65641;SDS011;52340;-6.720;108.544;2023-03-04T11:00:39;28.98;;;15.30;;
65641;SDS011;52340;-6.720;108.544;2023-03-04T22:35:10;31.40;;;20.08;;
65641;SDS011;52340;-6.720;108.544;2023-03-04T23:02:58;36.25;;;28.25;;
65641;SDS011;52340;-6.720;108.544;2023-03-04T23:05:08;36.40;;;27.52;;
65641;SDS011;52340;-6.720;108.544;2023-03-04T23:25:48;50.92;;;33.40;;
